createdAt,value
2023-04-22T00:00:36.193Z,6.00
2023-04-22T00:01:36.173Z,5.50
2023-04-22T00:02:36.397Z,5.70
2023-04-22T00:03:36.324Z,5.50
2023-04-22T00:04:36.546Z,6.00
2023-04-22T00:05:36.177Z,5.40
2023-04-22T00:06:36.131Z,5.80
2023-04-22T00:07:36.116Z,5.60
2023-04-22T00:08:36.099Z,5.60
2023-04-22T00:09:36.312Z,7.10
2023-04-22T00:10:36.103Z,7.30
2023-04-22T00:11:36.085Z,6.10
2023-04-22T00:12:36.056Z,5.50
2023-04-22T00:13:36.048Z,8.20
2023-04-22T00:14:36.033Z,5.50
2023-04-22T00:15:36.037Z,5.10
2023-04-22T00:16:36.181Z,6.40
2023-04-22T00:17:36.044Z,7.10
2023-04-22T00:18:36.041Z,5.60
2023-04-22T00:19:36.255Z,5.70
2023-04-22T00:20:35.976Z,5.80
2023-04-22T00:21:35.968Z,6.10
2023-04-22T00:22:35.955Z,5.40
2023-04-22T00:23:35.957Z,6.20
2023-04-22T00:24:35.928Z,5.30
2023-04-22T00:25:35.921Z,5.80
2023-04-22T00:26:35.898Z,6.90
2023-04-22T00:27:35.922Z,6.80
2023-04-22T00:28:35.888Z,6.50
2023-04-22T00:29:36.096Z,6.10
2023-04-22T00:30:35.892Z,6.80
2023-04-22T00:31:35.872Z,6.80
2023-04-22T00:32:35.898Z,6.40
2023-04-22T00:33:35.823Z,6.00
2023-04-22T00:34:35.835Z,6.00
2023-04-22T00:35:35.831Z,7.20
2023-04-22T00:36:35.796Z,6.20
2023-04-22T00:37:35.801Z,6.60
2023-04-22T00:38:35.769Z,6.40
2023-04-22T00:39:35.764Z,6.30
2023-04-22T00:40:35.773Z,6.10
2023-04-22T00:41:35.742Z,6.50
2023-04-22T00:42:43.225Z,6.50
2023-04-22T00:43:35.723Z,6.90
2023-04-22T00:44:35.725Z,6.80
2023-04-22T00:45:35.694Z,6.20
2023-04-22T00:46:35.759Z,6.30
2023-04-22T00:47:35.716Z,6.30
2023-04-22T00:48:35.662Z,7.10
2023-04-22T00:49:35.642Z,6.30
2023-04-22T00:50:35.700Z,6.20
2023-04-22T00:51:35.634Z,6.20
2023-04-22T00:52:35.639Z,6.70
2023-04-22T00:53:35.600Z,6.20
2023-04-22T00:54:35.624Z,6.50
2023-04-22T00:55:35.593Z,6.50
2023-04-22T00:56:35.589Z,6.40
2023-04-22T00:57:35.582Z,6.70
2023-04-22T00:58:35.589Z,6.30
2023-04-22T00:59:35.539Z,6.50
2023-04-22T01:00:35.567Z,6.70
2023-04-22T01:01:35.575Z,7.30
2023-04-22T01:02:35.611Z,6.40
2023-04-22T01:03:35.719Z,6.30
2023-04-22T01:04:35.481Z,7.70
2023-04-22T01:05:35.489Z,8.50
2023-04-22T01:06:35.493Z,6.20
2023-04-22T01:07:35.465Z,6.50
2023-04-22T01:08:35.465Z,6.40
2023-04-22T01:09:35.421Z,7.50
2023-04-22T01:10:35.411Z,6.00
2023-04-22T01:11:35.408Z,6.20
2023-04-22T01:12:35.410Z,6.70
2023-04-22T01:13:35.384Z,6.90
2023-04-22T01:14:35.391Z,6.40
2023-04-22T01:15:35.363Z,5.80
2023-04-22T01:16:35.398Z,5.60
2023-04-22T01:17:35.373Z,5.70
2023-04-22T01:18:35.369Z,5.80
2023-04-22T01:19:35.315Z,5.40
2023-04-22T01:20:35.308Z,5.80
2023-04-22T01:21:35.317Z,5.00
2023-04-22T01:22:35.299Z,5.50
2023-04-22T01:23:35.292Z,5.20
2023-04-22T01:24:35.257Z,5.20
2023-04-22T01:25:35.247Z,5.10
2023-04-22T01:26:35.268Z,4.80
2023-04-22T01:27:35.228Z,6.50
2023-04-22T01:28:36.053Z,5.00
2023-04-22T01:29:35.207Z,5.00
2023-04-22T01:30:35.210Z,5.50
2023-04-22T01:31:35.233Z,4.90
2023-04-22T01:32:35.212Z,7.70
2023-04-22T01:33:35.185Z,5.20
2023-04-22T01:34:35.154Z,5.70
2023-04-22T01:35:35.163Z,6.60
2023-04-22T01:36:35.153Z,6.70
2023-04-22T01:37:35.128Z,5.00
2023-04-22T01:38:35.248Z,5.20
2023-04-22T01:39:35.106Z,5.10
2023-04-22T01:40:35.081Z,5.00
2023-04-22T01:41:35.078Z,5.10
2023-04-22T01:42:35.068Z,4.80
2023-04-22T01:43:35.050Z,5.30
2023-04-22T01:44:35.052Z,4.60
2023-04-22T01:45:35.127Z,5.70
2023-04-22T01:46:35.150Z,5.90
2023-04-22T01:47:35.021Z,6.30
2023-04-22T01:48:35.011Z,6.00
2023-04-22T01:49:34.990Z,4.90
2023-04-22T01:50:34.984Z,5.20
2023-04-22T01:51:34.969Z,6.40
2023-04-22T01:52:34.951Z,5.60
2023-04-22T01:53:34.955Z,5.20
2023-04-22T01:54:34.949Z,7.20
2023-04-22T01:55:34.930Z,4.80
2023-04-22T01:56:34.917Z,5.10
2023-04-22T01:57:34.955Z,5.00
2023-04-22T01:58:34.896Z,5.50
2023-04-22T01:59:34.901Z,5.40
2023-04-22T02:00:34.877Z,5.40
2023-04-22T02:01:34.947Z,6.60
2023-04-22T02:02:34.978Z,5.50
2023-04-22T02:03:34.897Z,5.10
2023-04-22T02:04:34.901Z,4.80
2023-04-22T02:05:34.818Z,5.20
2023-04-22T02:06:34.813Z,5.60
2023-04-22T02:07:34.794Z,5.10
2023-04-22T02:08:34.778Z,6.00
2023-04-22T02:09:34.766Z,5.00
2023-04-22T02:10:34.774Z,5.60
2023-04-22T02:11:34.767Z,5.30
2023-04-22T02:12:34.741Z,5.20
2023-04-22T02:13:34.722Z,5.50
2023-04-22T02:14:34.724Z,5.10
2023-04-22T02:15:34.777Z,5.00
2023-04-22T02:16:34.692Z,5.70
2023-04-22T02:17:34.672Z,5.70
2023-04-22T02:18:34.661Z,6.20
2023-04-22T02:19:34.684Z,5.30
2023-04-22T02:20:34.639Z,5.50
2023-04-22T02:21:34.656Z,5.40
2023-04-22T02:22:34.611Z,5.10
2023-04-22T02:23:34.643Z,5.40
2023-04-22T02:24:34.594Z,5.30
2023-04-22T02:25:34.587Z,5.60
2023-04-22T02:26:34.700Z,6.60
2023-04-22T02:27:34.567Z,5.10
2023-04-22T02:28:34.587Z,5.10
2023-04-22T02:29:34.575Z,6.10
2023-04-22T02:30:34.538Z,5.30
2023-04-22T02:31:34.597Z,5.90
2023-04-22T02:32:34.543Z,6.00
2023-04-22T02:33:34.513Z,6.30
2023-04-22T02:34:34.503Z,5.60
2023-04-22T02:35:34.483Z,5.00
2023-04-22T02:36:34.462Z,5.50
2023-04-22T02:37:34.451Z,6.50
2023-04-22T02:38:34.447Z,5.60
2023-04-22T02:39:34.452Z,6.30
2023-04-22T02:40:34.442Z,5.20
2023-04-22T02:41:34.418Z,5.70
2023-04-22T02:42:34.431Z,5.40
2023-04-22T02:43:41.898Z,5.30
2023-04-22T02:44:34.370Z,5.60
2023-04-22T02:45:34.376Z,5.20
2023-04-22T02:46:34.396Z,6.20
2023-04-22T02:47:34.383Z,5.40
2023-04-22T02:48:34.350Z,5.80
2023-04-22T02:49:34.319Z,5.60
2023-04-22T02:50:34.302Z,4.90
2023-04-22T02:51:34.297Z,5.40
2023-04-22T02:52:34.290Z,6.00
2023-04-22T02:53:34.289Z,5.40
2023-04-22T02:54:34.270Z,5.10
2023-04-22T02:55:34.252Z,6.00
2023-04-22T02:56:34.248Z,6.10
2023-04-22T02:57:34.233Z,8.70
2023-04-22T02:58:34.260Z,5.70
2023-04-22T02:59:34.210Z,6.40
2023-04-22T03:00:34.227Z,5.60
2023-04-22T03:01:34.317Z,5.90
2023-04-22T03:02:34.381Z,5.90
2023-04-22T03:03:34.405Z,6.40
2023-04-22T03:04:34.279Z,6.20
2023-04-22T03:05:34.170Z,5.10
2023-04-22T03:06:34.125Z,6.40
2023-04-22T03:07:34.162Z,5.70
2023-04-22T03:08:34.129Z,6.00
2023-04-22T03:09:34.096Z,5.30
2023-04-22T03:10:34.086Z,5.70
2023-04-22T03:11:34.073Z,5.20
2023-04-22T03:12:34.084Z,5.90
2023-04-22T03:13:34.078Z,5.30
2023-04-22T03:14:34.082Z,5.10
2023-04-22T03:15:34.049Z,5.50
2023-04-22T03:16:34.072Z,6.20
2023-04-22T03:17:34.042Z,6.60
2023-04-22T03:18:34.008Z,5.50
2023-04-22T03:19:34.015Z,5.80
2023-04-22T03:20:34.032Z,5.80
2023-04-22T03:21:34.005Z,5.40
2023-04-22T03:22:33.956Z,5.60
2023-04-22T03:23:33.944Z,5.80
2023-04-22T03:24:33.930Z,6.80
2023-04-22T03:25:33.938Z,5.80
2023-04-22T03:26:33.910Z,6.40
2023-04-22T03:27:33.899Z,5.40
2023-04-22T03:28:33.898Z,5.50
2023-04-22T03:29:33.877Z,5.60
2023-04-22T03:30:33.884Z,6.30
2023-04-22T03:31:33.898Z,5.70
2023-04-22T03:32:33.890Z,5.70
2023-04-22T03:33:33.846Z,6.80
2023-04-22T03:34:35.206Z,5.60
2023-04-22T03:35:33.809Z,6.40
2023-04-22T03:36:33.802Z,5.20
2023-04-22T03:37:33.809Z,7.00
2023-04-22T03:38:33.778Z,5.50
2023-04-22T03:39:33.781Z,5.50
2023-04-22T03:40:33.755Z,5.60
2023-04-22T03:41:33.770Z,5.90
2023-04-22T03:42:33.730Z,6.30
2023-04-22T03:43:33.738Z,7.00
2023-04-22T03:44:33.709Z,5.80
2023-04-22T03:45:33.770Z,7.00
2023-04-22T03:46:33.783Z,5.30
2023-04-22T03:47:33.742Z,5.80
2023-04-22T03:48:33.692Z,6.30
2023-04-22T03:49:33.666Z,8.60
2023-04-22T03:50:33.655Z,6.30
2023-04-22T03:51:33.666Z,6.30
2023-04-22T03:52:33.619Z,6.10
2023-04-22T03:53:33.616Z,6.20
2023-04-22T03:54:33.612Z,6.30
2023-04-22T03:55:33.591Z,6.70
2023-04-22T03:56:33.584Z,5.70
2023-04-22T03:57:33.585Z,7.10
2023-04-22T03:58:33.557Z,6.30
2023-04-22T03:59:33.550Z,7.10
2023-04-22T04:00:33.534Z,6.50
2023-04-22T04:01:33.522Z,6.60
2023-04-22T04:02:33.691Z,5.90
2023-04-22T04:03:33.748Z,6.60
2023-04-22T04:04:33.763Z,6.20
2023-04-22T04:05:33.810Z,6.10
2023-04-22T04:06:33.535Z,6.10
2023-04-22T04:07:33.474Z,6.50
2023-04-22T04:08:33.441Z,7.30
2023-04-22T04:09:33.440Z,6.30
2023-04-22T04:10:33.468Z,6.40
2023-04-22T04:11:33.450Z,7.00
2023-04-22T04:12:33.414Z,7.10
2023-04-22T04:13:33.409Z,6.60
2023-04-22T04:14:33.374Z,6.10
2023-04-22T04:15:33.437Z,6.30
2023-04-22T04:16:33.426Z,6.70
2023-04-22T04:17:33.443Z,6.60
2023-04-22T04:18:33.365Z,6.30
2023-04-22T04:19:33.340Z,6.60
2023-04-22T04:20:33.310Z,6.10
2023-04-22T04:21:33.300Z,6.60
2023-04-22T04:22:33.287Z,6.30
2023-04-22T04:23:33.293Z,6.50
2023-04-22T04:24:33.265Z,6.30
2023-04-22T04:25:33.268Z,6.90
2023-04-22T04:26:34.077Z,6.40
2023-04-22T04:27:33.233Z,6.40
2023-04-22T04:28:33.253Z,7.30
2023-04-22T04:29:33.214Z,6.60
2023-04-22T04:30:33.657Z,7.00
2023-04-22T04:31:33.286Z,6.70
2023-04-22T04:32:33.235Z,6.30
2023-04-22T04:33:33.164Z,6.50
2023-04-22T04:34:33.251Z,6.10
2023-04-22T04:35:33.145Z,6.30
2023-04-22T04:36:33.137Z,6.70
2023-04-22T04:37:33.126Z,6.40
2023-04-22T04:38:33.114Z,6.20
2023-04-22T04:39:33.105Z,6.50
2023-04-22T04:40:33.095Z,6.00
2023-04-22T04:41:33.079Z,6.20
2023-04-22T04:42:33.065Z,6.80
2023-04-22T04:43:33.061Z,5.80
2023-04-22T04:44:40.548Z,5.80
2023-04-22T04:45:33.042Z,5.80
2023-04-22T04:46:33.060Z,5.90
2023-04-22T04:47:33.063Z,5.80
2023-04-22T04:48:33.013Z,6.30
2023-04-22T04:49:32.986Z,5.80
2023-04-22T04:50:33.010Z,6.90
2023-04-22T04:51:32.986Z,5.90
2023-04-22T04:52:32.952Z,6.40
2023-04-22T04:53:32.939Z,5.80
2023-04-22T04:54:32.944Z,6.00
2023-04-22T04:55:32.951Z,6.40
2023-04-22T04:56:32.912Z,6.20
2023-04-22T04:57:32.895Z,5.70
2023-04-22T04:58:32.889Z,6.20
2023-04-22T04:59:32.872Z,5.90
2023-04-22T05:00:32.868Z,5.60
2023-04-22T05:01:32.917Z,7.00
2023-04-22T05:02:32.941Z,5.90
2023-04-22T05:03:32.989Z,6.60
2023-04-22T05:04:33.065Z,6.20
2023-04-22T05:05:32.809Z,5.70
2023-04-22T05:06:32.852Z,5.60
2023-04-22T05:07:32.791Z,6.20
2023-04-22T05:08:32.786Z,5.70
2023-04-22T05:09:32.766Z,6.10
2023-04-22T05:10:32.775Z,6.10
2023-04-22T05:11:32.744Z,5.50
2023-04-22T05:12:32.748Z,5.80
2023-04-22T05:13:32.726Z,6.20
2023-04-22T05:14:32.723Z,5.60
2023-04-22T05:15:32.701Z,5.60
2023-04-22T05:16:32.746Z,5.70
2023-04-22T05:17:32.716Z,5.20
2023-04-22T05:18:32.677Z,5.20
2023-04-22T05:19:32.669Z,5.70
2023-04-22T05:20:35.336Z,5.90
2023-04-22T05:21:32.635Z,5.40
2023-04-22T05:22:32.670Z,5.90
2023-04-22T05:23:32.624Z,5.70
2023-04-22T05:24:32.607Z,6.30
2023-04-22T05:25:32.598Z,5.50
2023-04-22T05:26:32.592Z,6.40
2023-04-22T05:27:32.589Z,5.90
2023-04-22T05:28:32.577Z,5.80
2023-04-22T05:29:32.575Z,5.50
2023-04-22T05:30:32.538Z,5.50
2023-04-22T05:31:32.689Z,5.80
2023-04-22T05:32:32.562Z,5.60
2023-04-22T05:33:32.515Z,6.00
2023-04-22T05:34:32.509Z,5.50
2023-04-22T05:35:32.489Z,5.50
2023-04-22T05:36:32.473Z,5.70
2023-04-22T05:37:32.464Z,7.20
2023-04-22T05:38:32.475Z,6.10
2023-04-22T05:39:32.455Z,5.20
2023-04-22T05:40:32.450Z,5.30
2023-04-22T05:41:32.413Z,5.20
2023-04-22T05:42:32.426Z,5.10
2023-04-22T05:43:32.409Z,6.10
2023-04-22T05:44:32.388Z,5.30
2023-04-22T05:45:32.421Z,5.90
2023-04-22T05:46:32.454Z,7.20
2023-04-22T05:47:32.405Z,4.90
2023-04-22T05:48:32.347Z,5.60
2023-04-22T05:49:32.334Z,5.40
2023-04-22T05:50:32.327Z,6.20
2023-04-22T05:51:32.301Z,5.20
2023-04-22T05:52:32.311Z,6.40
2023-04-22T05:53:32.312Z,5.20
2023-04-22T05:54:32.295Z,6.20
2023-04-22T05:55:32.362Z,5.10
2023-04-22T05:56:32.259Z,5.50
2023-04-22T05:57:32.238Z,5.20
2023-04-22T05:58:32.239Z,5.70
2023-04-22T05:59:32.216Z,5.70
2023-04-22T06:00:32.227Z,5.90
2023-04-22T06:01:32.206Z,5.20
2023-04-22T06:02:32.316Z,5.20
2023-04-22T06:03:32.474Z,5.60
2023-04-22T06:04:35.349Z,5.20
2023-04-22T06:05:32.199Z,5.70
2023-04-22T06:06:32.151Z,5.70
2023-04-22T06:07:32.121Z,5.20
2023-04-22T06:08:32.136Z,5.20
2023-04-22T06:09:32.103Z,5.10
2023-04-22T06:10:32.119Z,5.20
2023-04-22T06:11:32.109Z,5.10
2023-04-22T06:12:32.076Z,5.20
2023-04-22T06:13:32.063Z,4.90
2023-04-22T06:14:32.048Z,4.70
2023-04-22T06:15:32.074Z,5.00
2023-04-22T06:16:32.040Z,5.20
2023-04-22T06:17:32.053Z,4.40
2023-04-22T06:18:32.008Z,5.50
2023-04-22T06:19:32.002Z,4.90
2023-04-22T06:20:31.997Z,5.30
2023-04-22T06:21:31.970Z,5.20
2023-04-22T06:22:31.969Z,4.70
2023-04-22T06:23:31.946Z,4.70
2023-04-22T06:24:31.953Z,4.80
2023-04-22T06:25:31.933Z,5.00
2023-04-22T06:26:31.937Z,4.50
2023-04-22T06:27:31.917Z,5.00
2023-04-22T06:28:31.915Z,4.80
2023-04-22T06:29:31.900Z,4.80
2023-04-22T06:30:31.866Z,4.80
2023-04-22T06:31:31.892Z,4.70
2023-04-22T06:32:31.882Z,5.00
2023-04-22T06:33:31.849Z,4.50
2023-04-22T06:34:31.824Z,5.30
2023-04-22T06:35:31.813Z,4.90
2023-04-22T06:36:31.801Z,4.50
2023-04-22T06:37:31.800Z,5.00
2023-04-22T06:38:31.780Z,4.40
2023-04-22T06:39:31.772Z,4.40
2023-04-22T06:40:31.760Z,4.30
2023-04-22T06:41:31.765Z,4.80
2023-04-22T06:42:31.778Z,4.20
2023-04-22T06:43:31.724Z,4.10
2023-04-22T06:44:31.711Z,4.30
2023-04-22T06:45:39.547Z,4.00
2023-04-22T06:46:31.725Z,4.20
2023-04-22T06:47:31.723Z,3.80
2023-04-22T06:48:31.686Z,4.20
2023-04-22T06:49:31.649Z,4.00
2023-04-22T06:50:31.644Z,4.00
2023-04-22T06:51:31.639Z,4.90
2023-04-22T06:52:31.659Z,4.00
2023-04-22T06:53:31.606Z,4.10
2023-04-22T06:54:31.598Z,3.90
2023-04-22T06:55:31.585Z,4.00
2023-04-22T06:56:31.591Z,4.30
2023-04-22T06:57:31.575Z,4.00
2023-04-22T06:58:31.579Z,4.20
2023-04-22T06:59:31.579Z,4.60
2023-04-22T07:00:31.532Z,4.20
2023-04-22T07:01:31.577Z,4.80
2023-04-22T07:02:31.603Z,3.90
2023-04-22T07:03:31.761Z,4.20
2023-04-22T07:04:31.532Z,4.50
2023-04-22T07:05:31.484Z,3.80
2023-04-22T07:12:13.791Z,4.50
2023-04-22T07:13:13.758Z,3.90
2023-04-22T07:14:13.760Z,6.60
2023-04-22T07:15:13.769Z,3.70
2023-04-22T07:16:13.778Z,4.10
2023-04-22T07:17:13.716Z,4.20
2023-04-22T07:18:13.701Z,4.10
2023-04-22T07:19:13.709Z,4.20
2023-04-22T07:20:13.681Z,4.20
2023-04-22T07:21:13.681Z,4.60
2023-04-22T07:22:13.659Z,4.30
2023-04-22T07:23:13.661Z,5.00
2023-04-22T07:24:13.639Z,4.00
2023-04-22T07:25:13.640Z,3.50
2023-04-22T07:26:13.637Z,5.40
2023-04-22T07:27:13.615Z,4.10
2023-04-22T07:28:13.595Z,3.90
2023-04-22T07:29:13.589Z,3.90
2023-04-22T07:30:13.616Z,4.10
2023-04-22T07:31:13.573Z,4.40
2023-04-22T07:32:13.694Z,4.30
2023-04-22T07:33:13.538Z,3.80
2023-04-22T07:34:13.528Z,4.10
2023-04-22T07:35:13.519Z,4.10
2023-04-22T07:36:13.523Z,4.30
2023-04-22T07:37:13.511Z,3.80
2023-04-22T07:38:14.675Z,4.20
2023-04-22T07:39:13.468Z,4.60
2023-04-22T07:40:13.463Z,3.90
2023-04-22T07:41:13.474Z,4.00
2023-04-22T07:42:13.449Z,4.60
2023-04-22T07:43:13.437Z,3.60
2023-04-22T07:44:13.415Z,4.10
2023-04-22T07:45:13.405Z,3.90
2023-04-22T07:46:13.480Z,3.60
2023-04-22T07:47:13.399Z,3.60
2023-04-22T07:48:13.373Z,3.80
2023-04-22T07:49:13.364Z,3.70
2023-04-22T07:50:13.351Z,3.90
2023-04-22T07:51:13.352Z,3.90
2023-04-22T07:52:13.336Z,3.80
2023-04-22T07:53:13.343Z,3.80
2023-04-22T07:54:13.322Z,3.90
2023-04-22T07:55:13.303Z,3.70
2023-04-22T07:56:13.299Z,3.70
2023-04-22T07:57:13.272Z,3.50
2023-04-22T07:58:13.265Z,3.60
2023-04-22T07:59:13.253Z,3.50
2023-04-22T08:00:13.254Z,3.80
2023-04-22T08:01:13.355Z,3.60
2023-04-22T08:02:13.330Z,3.30
2023-04-22T08:03:13.436Z,3.30
2023-04-22T08:04:13.481Z,3.20
2023-04-22T08:05:13.329Z,3.10
2023-04-22T08:06:13.189Z,3.90
2023-04-22T08:07:30.819Z,3.30
2023-04-22T08:08:13.185Z,3.30
2023-04-22T08:09:13.145Z,3.40
2023-04-22T08:10:13.163Z,3.30
2023-04-22T08:11:13.141Z,2.90
2023-04-22T08:12:13.131Z,4.70
2023-04-22T08:13:13.121Z,3.20
2023-04-22T08:14:13.108Z,3.50
2023-04-22T08:15:13.086Z,3.00
2023-04-22T08:16:13.118Z,3.40
2023-04-22T08:17:13.071Z,3.90
2023-04-22T08:18:13.075Z,3.60
2023-04-22T08:19:13.065Z,3.10
2023-04-22T08:20:13.059Z,3.20
2023-04-22T08:21:13.020Z,3.90
2023-04-22T08:22:13.012Z,2.70
2023-04-22T08:23:13.008Z,3.00
2023-04-22T08:24:12.989Z,2.90
2023-04-22T08:25:12.976Z,3.30
2023-04-22T08:26:12.968Z,2.90
2023-04-22T08:27:12.956Z,2.80
2023-04-22T08:28:12.967Z,3.20
2023-04-22T08:29:12.957Z,4.00
2023-04-22T08:30:12.928Z,3.10
2023-04-22T08:31:13.036Z,2.70
2023-04-22T08:32:12.917Z,2.70
2023-04-22T08:33:12.891Z,2.80
2023-04-22T08:34:12.909Z,2.60
2023-04-22T08:35:12.870Z,2.60
2023-04-22T08:36:12.880Z,3.00
2023-04-22T08:37:12.856Z,2.70
2023-04-22T08:38:12.841Z,2.80
2023-04-22T08:39:12.819Z,3.10
2023-04-22T08:40:12.824Z,3.70
2023-04-22T08:41:12.804Z,2.50
2023-04-22T08:42:12.803Z,2.70
2023-04-22T08:43:12.784Z,3.00
2023-04-22T08:44:12.769Z,2.40
2023-04-22T08:45:12.755Z,2.30
2023-04-22T08:46:12.782Z,3.10
2023-04-22T08:47:12.758Z,2.70
2023-04-22T08:48:12.728Z,2.60
2023-04-22T08:49:12.713Z,2.60
2023-04-22T08:50:12.729Z,4.10
2023-04-22T08:51:12.705Z,2.60
2023-04-22T08:52:12.714Z,2.40
2023-04-22T08:53:12.682Z,2.70
2023-04-22T08:54:12.667Z,2.10
2023-04-22T08:55:12.644Z,4.60
2023-04-22T08:56:12.638Z,2.70
2023-04-22T08:57:12.625Z,2.60
2023-04-22T08:58:12.615Z,2.50
2023-04-22T08:59:12.620Z,2.50
2023-04-22T09:00:12.593Z,2.50
2023-04-22T09:01:12.722Z,3.00
2023-04-22T09:02:12.582Z,2.50
2023-04-22T09:03:12.641Z,2.20
2023-04-22T09:04:12.667Z,2.70
2023-04-22T09:05:12.536Z,2.10
2023-04-22T09:06:12.547Z,2.60
2023-04-22T09:07:12.533Z,2.30
2023-04-22T09:08:12.509Z,2.40
2023-04-22T09:09:12.508Z,2.60
2023-04-22T09:10:12.508Z,2.50
2023-04-22T09:11:12.475Z,2.90
2023-04-22T09:12:19.990Z,2.40
2023-04-22T09:13:12.463Z,2.30
2023-04-22T09:14:12.443Z,2.50
2023-04-22T09:15:12.435Z,2.70
2023-04-22T09:16:12.448Z,2.40
2023-04-22T09:17:12.410Z,2.40
2023-04-22T09:18:12.411Z,2.40
2023-04-22T09:19:12.382Z,2.50
2023-04-22T09:20:12.375Z,2.30
2023-04-22T09:21:12.377Z,2.70
2023-04-22T09:22:12.375Z,2.20
2023-04-22T09:23:12.357Z,3.20
2023-04-22T09:24:12.347Z,2.80
2023-04-22T09:25:12.331Z,2.50
2023-04-22T09:26:12.312Z,2.30
2023-04-22T09:27:12.312Z,2.70
2023-04-22T09:28:12.316Z,2.50
2023-04-22T09:29:12.274Z,2.50
2023-04-22T09:30:12.266Z,3.10
2023-04-22T09:31:12.257Z,2.40
2023-04-22T09:32:12.280Z,2.10
2023-04-22T09:33:12.332Z,1.90
2023-04-22T09:34:12.821Z,2.40
2023-04-22T09:35:12.216Z,2.30
2023-04-22T09:36:12.216Z,2.10
2023-04-22T09:37:12.215Z,2.20
2023-04-22T09:38:12.203Z,2.20
2023-04-22T09:39:12.169Z,2.70
2023-04-22T09:40:12.167Z,1.90
2023-04-22T09:41:12.154Z,2.00
2023-04-22T09:42:12.148Z,2.40
2023-04-22T09:43:12.141Z,1.90
2023-04-22T09:44:12.113Z,2.40
2023-04-22T09:45:12.108Z,1.90
2023-04-22T09:46:12.124Z,2.50
2023-04-22T09:47:12.095Z,2.50
2023-04-22T09:48:12.077Z,1.90
2023-04-22T09:49:12.074Z,1.90
2023-04-22T09:50:12.054Z,3.00
2023-04-22T09:51:12.056Z,1.80
2023-04-22T09:52:12.035Z,2.30
2023-04-22T09:53:12.016Z,2.30
2023-04-22T09:54:12.088Z,2.00
2023-04-22T09:55:11.997Z,2.70
2023-04-22T09:56:11.993Z,2.00
2023-04-22T09:57:11.983Z,2.20
2023-04-22T09:58:11.988Z,2.30
2023-04-22T09:59:11.968Z,2.00
2023-04-22T10:00:12.381Z,2.00
2023-04-22T10:01:11.993Z,2.70
2023-04-22T10:02:11.977Z,2.80
2023-04-22T10:03:11.959Z,2.40
2023-04-22T10:04:11.942Z,1.80
2023-04-22T10:05:11.882Z,1.80
2023-04-22T10:06:11.885Z,1.80
2023-04-22T10:07:11.873Z,1.60
2023-04-22T10:08:11.940Z,1.80
2023-04-22T10:09:11.843Z,1.70
2023-04-22T10:10:11.855Z,1.90
2023-04-22T10:11:11.828Z,1.50
2023-04-22T10:12:11.819Z,1.60
2023-04-22T10:13:11.793Z,4.10
2023-04-22T10:14:11.810Z,1.70
2023-04-22T10:15:11.775Z,1.70
2023-04-22T10:16:11.768Z,1.60
2023-04-22T10:17:11.752Z,2.00
2023-04-22T10:18:11.765Z,1.60
2023-04-22T10:19:11.726Z,1.60
2023-04-22T10:20:11.724Z,1.60
2023-04-22T10:21:11.706Z,1.90
2023-04-22T10:22:11.699Z,2.40
2023-04-22T10:23:11.685Z,2.20
2023-04-22T10:24:11.690Z,1.70
2023-04-22T10:25:11.665Z,2.20
2023-04-22T10:26:11.674Z,1.80
2023-04-22T10:27:11.661Z,2.80
2023-04-22T10:28:11.653Z,1.70
2023-04-22T10:29:11.630Z,2.70
2023-04-22T10:30:11.629Z,2.30
2023-04-22T10:31:11.635Z,2.70
2023-04-22T10:32:11.602Z,1.60
2023-04-22T10:33:11.578Z,2.30
2023-04-22T10:34:11.565Z,2.00
2023-04-22T10:35:11.567Z,2.50
2023-04-22T10:36:11.604Z,1.50
2023-04-22T10:37:11.740Z,1.50
2023-04-22T10:38:11.525Z,2.40
2023-04-22T10:39:11.747Z,1.60
2023-04-22T10:40:11.522Z,1.70
2023-04-22T10:41:11.490Z,1.50
2023-04-22T10:42:11.531Z,1.90
2023-04-22T10:43:11.474Z,1.60
2023-04-22T10:44:11.460Z,1.50
2023-04-22T10:45:11.448Z,1.50
2023-04-22T10:46:11.473Z,1.60
2023-04-22T10:47:11.446Z,1.60
2023-04-22T10:48:11.419Z,1.70
2023-04-22T10:49:11.434Z,1.50
2023-04-22T10:50:11.414Z,1.70
2023-04-22T10:51:11.516Z,1.40
2023-04-22T10:52:11.375Z,2.90
2023-04-22T10:53:11.361Z,2.50
2023-04-22T10:54:11.357Z,1.40
2023-04-22T10:55:11.352Z,1.50
2023-04-22T10:56:11.334Z,1.40
2023-04-22T10:57:11.324Z,2.60
2023-04-22T10:58:11.345Z,2.10
2023-04-22T10:59:11.334Z,1.50
2023-04-22T11:00:11.330Z,1.70
2023-04-22T11:01:11.324Z,2.00
2023-04-22T11:02:11.386Z,2.30
2023-04-22T11:03:11.380Z,1.70
2023-04-22T11:04:11.391Z,2.10
2023-04-22T11:05:11.242Z,2.20
2023-04-22T11:06:11.241Z,2.20
2023-04-22T11:07:11.238Z,1.60
2023-04-22T11:08:11.208Z,2.40
2023-04-22T11:09:11.193Z,1.60
2023-04-22T11:10:11.187Z,1.70
2023-04-22T11:11:11.194Z,1.60
2023-04-22T11:12:11.213Z,2.10
2023-04-22T11:13:18.677Z,1.90
2023-04-22T11:14:11.148Z,1.40
2023-04-22T11:15:11.152Z,2.40
2023-04-22T11:16:11.322Z,1.90
2023-04-22T11:17:11.107Z,1.80
2023-04-22T11:18:11.104Z,1.60
2023-04-22T11:19:11.121Z,2.20
2023-04-22T11:20:11.103Z,2.10
2023-04-22T11:21:11.077Z,1.80
2023-04-22T11:22:11.069Z,1.60
2023-04-22T11:23:11.042Z,1.40
2023-04-22T11:24:11.036Z,2.40
2023-04-22T11:25:11.031Z,2.40
2023-04-22T11:26:11.024Z,3.50
2023-04-22T11:27:11.020Z,1.50
2023-04-22T11:28:10.995Z,4.10
2023-04-22T11:29:11.106Z,2.50
2023-04-22T11:30:10.975Z,4.50
2023-04-22T11:31:10.995Z,1.60
2023-04-22T11:32:10.952Z,2.00
2023-04-22T11:33:10.935Z,2.20
2023-04-22T11:34:10.923Z,1.80
2023-04-22T11:35:10.925Z,1.60
2023-04-22T11:36:10.921Z,1.60
2023-04-22T11:37:10.894Z,2.50
2023-04-22T11:38:10.895Z,2.10
2023-04-22T11:39:10.905Z,2.20
2023-04-22T11:40:28.045Z,1.90
2023-04-22T11:41:10.870Z,2.10
2023-04-22T11:42:10.865Z,2.10
2023-04-22T11:43:10.848Z,1.90
2023-04-22T11:44:10.819Z,2.20
2023-04-22T11:45:10.860Z,1.90
2023-04-22T11:46:10.833Z,1.50
2023-04-22T11:47:10.787Z,1.90
2023-04-22T11:48:10.787Z,1.50
2023-04-22T11:49:10.768Z,1.50
2023-04-22T11:50:10.756Z,1.60
2023-04-22T11:51:10.760Z,2.00
2023-04-22T11:52:10.751Z,1.80
2023-04-22T11:53:10.737Z,1.60
2023-04-22T11:54:10.713Z,2.30
2023-04-22T11:55:10.716Z,2.00
2023-04-22T11:56:10.687Z,2.70
2023-04-22T11:57:10.685Z,2.10
2023-04-22T11:58:10.668Z,2.20
2023-04-22T11:59:10.673Z,2.80
2023-04-22T12:00:10.647Z,1.80
2023-04-22T12:01:10.666Z,2.00
2023-04-22T12:02:10.710Z,1.80
2023-04-22T12:03:12.666Z,1.80
2023-04-22T12:04:10.747Z,2.10
2023-04-22T12:05:10.651Z,1.50
2023-04-22T12:06:10.595Z,1.70
2023-04-22T12:07:10.610Z,1.70
2023-04-22T12:08:10.563Z,1.90
2023-04-22T12:09:11.997Z,1.90
2023-04-22T12:10:10.559Z,3.90
2023-04-22T12:11:10.531Z,2.30
2023-04-22T12:12:10.523Z,1.60
2023-04-22T12:13:10.518Z,2.30
2023-04-22T12:14:10.498Z,1.60
2023-04-22T12:15:12.723Z,2.40
2023-04-22T12:16:10.476Z,1.60
2023-04-22T12:17:10.535Z,2.20
2023-04-22T12:18:10.469Z,2.40
2023-04-22T12:19:10.454Z,2.30
2023-04-22T12:20:10.434Z,4.20
2023-04-22T12:21:10.424Z,2.50
2023-04-22T12:22:10.426Z,1.80
2023-04-22T12:23:10.404Z,1.60
2023-04-22T12:24:10.399Z,2.20
2023-04-22T12:25:10.383Z,1.40
2023-04-22T12:26:10.371Z,1.90
2023-04-22T12:27:10.374Z,1.70
2023-04-22T12:28:10.346Z,1.60
2023-04-22T12:29:10.340Z,1.50
2023-04-22T12:30:10.337Z,1.40
2023-04-22T12:31:10.383Z,2.10
2023-04-22T12:32:10.306Z,1.90
2023-04-22T12:33:10.320Z,2.50
2023-04-22T12:34:10.311Z,1.70
2023-04-22T12:35:10.292Z,1.60
2023-04-22T12:36:10.266Z,1.80
2023-04-22T12:37:10.269Z,1.90
2023-04-22T12:38:10.254Z,1.30
2023-04-22T12:39:10.238Z,1.60
2023-04-22T12:40:10.224Z,2.30
2023-04-22T12:41:10.228Z,1.90
2023-04-22T12:42:10.205Z,1.50
2023-04-22T12:43:10.237Z,2.40
2023-04-22T12:44:10.203Z,1.70
2023-04-22T12:45:10.173Z,2.10
2023-04-22T12:46:10.207Z,1.50
2023-04-22T12:47:10.156Z,2.70
2023-04-22T12:48:10.152Z,2.10
2023-04-22T12:49:10.191Z,2.00
2023-04-22T12:50:10.144Z,1.70
2023-04-22T12:51:10.134Z,1.80
2023-04-22T12:52:10.115Z,2.50
2023-04-22T12:53:10.108Z,1.80
2023-04-22T12:54:10.076Z,2.40
2023-04-22T12:55:10.071Z,1.80
2023-04-22T12:56:10.052Z,2.00
2023-04-22T12:57:10.057Z,1.60
2023-04-22T12:58:10.029Z,1.60
2023-04-22T12:59:10.046Z,2.10
2023-04-22T13:00:10.054Z,2.10
2023-04-22T13:01:10.018Z,2.50
2023-04-22T13:02:10.082Z,4.40
2023-04-22T13:03:10.102Z,1.50
2023-04-22T13:04:10.017Z,1.60
2023-04-22T13:05:09.978Z,1.50
2023-04-22T13:06:09.959Z,1.70
2023-04-22T13:07:09.936Z,1.70
2023-04-22T13:08:09.923Z,1.50
2023-04-22T13:09:09.915Z,1.70
2023-04-22T13:10:09.973Z,1.70
2023-04-22T13:11:09.891Z,1.50
2023-04-22T13:12:09.877Z,1.70
2023-04-22T13:13:18.356Z,1.50
2023-04-22T13:15:19.819Z,1.80
2023-04-22T13:16:19.831Z,1.90
2023-04-22T13:17:19.796Z,2.60
2023-04-22T13:18:19.789Z,2.30
2023-04-22T13:19:19.773Z,1.90
2023-04-22T13:20:19.777Z,2.50
2023-04-22T13:21:19.752Z,2.40
2023-04-22T13:22:19.748Z,1.80
2023-04-22T13:23:19.758Z,3.10
2023-04-22T13:24:19.727Z,2.80
2023-04-22T13:25:19.709Z,2.00